Latest Weather Observations for Alva Beach

IDQ60801

Issued at 5:35 pm EST Monday 20 October 2014 (issued every 30 minutes, with the page automatically refreshed every 10 minutes)

About weather observations | Map of weather stations | Latest weather observations for QLD | Other Formats
Station Details ID: 033295 Name: ALVA BEACH Lat: -19.46 Lon: 147.48 Height: 7.5 m
Data from the previous 72 hours. | See also: Recent months at Alva Beach
Date/Time
EST
Temp
°C
App
Temp
°C
Dew
Point
Rel
Hum
%
Delta-T
°C
Wind Press
QNH
hPa
Press
MSL
hPa
Rain
since 9 am
mm
Dir
 
Spd
km/h
Gust
km/h
Spd
kts
Gust
kts
20/05:30pm 23.2 19.8 16.7 67 4.0 E 30 39 16 21 1018.0 1018.0 0.0
20/05:00pm 23.7 19.7 16.2 63 4.6 E 32 44 17 24 1017.3 1017.3 0.0
20/04:30pm 24.0 20.6 16.8 64 4.4 E 30 41 16 22 1017.0 1017.0 0.0
20/04:00pm 24.2 20.0 15.7 59 5.1 E 32 43 17 23 1017.1 1017.1 0.0
20/03:30pm 24.4 20.6 16.6 61 4.8 E 32 43 17 23 1017.2 1017.2 0.0
20/03:00pm 24.7 20.2 14.8 54 5.9 E 32 43 17 23 1017.3 1017.3 0.0
20/02:30pm 25.0 21.5 15.6 56 5.7 E 28 37 15 20 1017.6 1017.6 0.0
20/02:00pm 25.0 21.3 15.0 53 6.0 E 28 37 15 20 1017.9 1017.9 0.0
20/01:30pm 25.6 21.9 15.0 52 6.4 E 28 35 15 19 1018.3 1018.3 0.0
20/01:00pm 26.5 23.1 15.8 51 6.5 E 28 37 15 20 1018.7 1018.7 0.0
20/12:30pm 25.4 22.0 12.6 45 7.4 E 22 33 12 18 1019.3 1019.3 0.0
20/12:00pm 27.2 24.6 14.9 47 7.4 ESE 22 32 12 17 1020.0 1020.0 0.0
20/11:30am 26.5 23.5 13.6 45 7.6 ESE 22 32 12 17 1020.5 1020.5 0.0
20/11:00am 26.8 23.6 15.2 49 7.0 ESE 26 35 14 19 1020.7 1020.7 0.0
20/10:30am 25.9 22.8 14.4 49 6.9 ESE 24 41 13 22 1021.1 1021.1 0.0
20/10:00am 25.7 23.7 15.4 53 6.2 ESE 20 37 11 20 1021.4 1021.4 0.0
20/09:30am 24.3 21.4 15.2 57 5.5 ESE 24 39 13 21 1021.6 1021.6 0.0
20/09:00am 24.4 22.4 16.4 61 4.9 ESE 22 33 12 18 1021.6 1021.6 1.0
20/08:30am 23.5 21.9 15.0 59 5.1 SE 17 28 9 15 1021.7 1021.7 1.0
20/08:00am 22.8 21.5 13.8 57 5.2 SE 13 22 7 12 1021.4 1021.4 1.0
20/07:30am 22.1 20.9 14.0 60 4.7 SSE 13 22 7 12 1021.3 1021.3 1.0
20/07:00am 21.2 20.4 14.1 64 4.1 SSE 11 20 6 11 1021.0 1021.0 1.0
20/06:30am 19.2 18.8 14.2 73 2.9 S 9 17 5 9 1020.6 1020.6 1.0
20/06:00am 18.2 17.7 13.9 76 2.4 S 9 17 5 9 1020.1 1020.1 1.0
20/05:30am 18.1 17.2 13.8 76 2.4 S 11 20 6 11 1019.9 1019.9 1.0
20/05:00am 18.2 17.4 13.9 76 2.4 S 11 19 6 10 1019.5 1019.5 1.0
20/04:30am 18.2 17.0 14.1 77 2.3 S 13 20 7 11 1019.4 1019.4 1.0
20/04:00am 18.3 17.6 14.4 78 2.2 S 11 17 6 9 1019.1 1019.1 1.0
20/03:30am 18.4 18.3 14.9 80 2.0 S 9 13 5 7 1019.1 1019.1 1.0
20/03:00am 18.7 19.3 15.9 84 1.7 SSW 7 9 4 5 1019.3 1019.3 1.0
20/02:30am 19.1 19.2 15.6 80 2.1 SSW 9 17 5 9 1019.3 1019.3 0.4
20/02:00am 20.9 20.4 14.8 68 3.6 S 11 17 6 9 1019.5 1019.5 0.0
20/01:30am 22.0 20.3 15.8 68 3.7 SE 19 28 10 15 1019.7 1019.7 0.0
20/01:00am 22.1 20.0 16.1 69 3.6 ESE 22 37 12 20 1019.9 1019.9 0.0
20/12:30am 22.0 19.6 16.3 70 3.4 ESE 24 43 13 23 1020.3 1020.3 0.0
20/12:00am 22.1 19.3 16.4 70 3.4 ESE 26 39 14 21 1020.3 1020.3 0.0
 
Date/Time
EST
Temp
°C
App
Temp
°C
Dew
Point
Rel
Hum
%
Delta-T
°C
Wind Press
QNH
hPa
Press
MSL
hPa
Rain
since 9 am
mm
Dir
 
Spd
km/h
Gust
km/h
Spd
kts
Gust
kts
19/11:30pm 22.1 19.6 16.1 69 3.6 ESE 24 43 13 23 1020.6 1020.6 0.0
19/11:00pm 22.1 19.1 15.9 68 3.7 ESE 26 39 14 21 1020.8 1020.8 0.0
19/10:30pm 22.3 18.8 16.6 70 3.5 ESE 30 46 16 25 1020.9 1020.9 0.0
19/10:00pm 22.5 18.9 16.3 68 3.7 ESE 30 46 16 25 1021.0 1021.0 0.0
19/09:30pm 22.7 19.1 16.3 67 3.9 ESE 30 44 16 24 1020.8 1020.8 0.0
19/09:20pm 22.8 19.3 16.4 67 3.9 ESE 30 48 16 26 1020.8 1020.8 0.0
19/09:00pm 22.8 18.6 16.1 66 4.0 E 33 46 18 25 1020.6 1020.6 0.0
19/08:30pm 22.8 18.8 16.1 66 4.1 ESE 32 46 17 25 1020.3 1020.3 0.0
19/08:21pm 22.9 19.0 16.4 67 4.0 ESE 32 50 17 27 1020.3 1020.3 0.0
19/08:00pm 23.0 18.5 16.3 66 4.1 E 35 48 19 26 1020.0 1020.0 0.0
19/07:45pm 23.1 18.5 16.2 65 4.2 E 35 54 19 29 1019.9 1019.9 0.0
19/07:30pm 23.0 18.0 16.1 65 4.2 E 37 54 20 29 1019.9 1019.9 0.0
19/07:00pm 23.3 18.5 16.6 66 4.1 E 37 52 20 28 1019.6 1019.6 0.0
19/06:30pm 23.4 18.8 17.2 68 3.8 E 37 50 20 27 1019.4 1019.4 0.0
19/06:00pm 23.4 18.4 16.0 63 4.5 E 37 57 20 31 1018.9 1018.9 0.0
19/05:30pm 23.8 18.7 16.8 65 4.3 E 39 50 21 27 1018.6 1018.6 0.0
19/05:00pm 24.0 19.1 15.2 58 5.3 E 35 50 19 27 1018.4 1018.4 0.0
19/04:30pm 24.4 19.5 15.3 57 5.5 E 35 50 19 27 1018.1 1018.1 0.0
19/04:18pm 24.9 20.4 16.3 59 5.3 E 35 54 19 29 1018.1 1018.1 0.0
19/04:00pm 24.8 20.7 16.5 60 5.1 E 33 50 18 27 1017.9 1017.9 0.0
19/03:30pm 24.7 19.7 16.2 59 5.2 E 37 48 20 26 1017.9 1017.9 0.0
19/03:00pm 24.8 20.5 16.8 61 4.9 E 35 48 19 26 1017.9 1017.9 0.0
19/02:47pm 25.0 20.5 16.4 59 5.3 E 35 54 19 29 1017.9 1017.9 0.0
19/02:30pm 25.0 19.9 15.9 57 5.5 E 37 50 20 27 1018.0 1018.0 0.0
19/02:00pm 26.1 21.9 15.8 53 6.3 E 32 46 17 25 1018.5 1018.5 0.0
19/01:30pm 26.1 22.4 16.9 57 5.7 E 32 43 17 23 1019.0 1019.0 0.0
19/01:00pm 26.3 22.8 16.5 54 6.0 ESE 30 43 16 23 1019.2 1019.2 0.0
19/12:30pm 25.9 22.2 17.0 58 5.5 E 32 44 17 24 1019.5 1019.5 0.0
19/12:00pm 25.6 21.1 16.4 56 5.6 E 35 46 19 25 1019.9 1019.9 0.0
19/11:41am 26.4 22.6 15.8 52 6.5 E 30 48 16 26 1020.2 1020.2 0.0
19/11:30am 26.1 22.4 14.9 50 6.7 E 28 44 15 24 1020.3 1020.3 0.0
19/11:00am 26.7 24.3 16.3 53 6.4 ESE 24 39 13 21 1020.8 1020.8 0.0
19/10:30am 26.5 24.5 15.5 50 6.7 ESE 20 37 11 20 1021.2 1021.2 0.0
19/10:00am 26.7 24.8 15.7 51 6.7 ESE 20 35 11 19 1021.3 1021.3 0.0
19/09:30am 25.5 22.7 14.3 50 6.7 ESE 22 41 12 22 1021.4 1021.4 0.0
19/09:00am 25.6 23.3 14.7 51 6.5 ESE 20 35 11 19 1021.4 1021.4 0.0
19/08:30am 24.5 20.7 14.6 54 5.9 ESE 28 41 15 22 1021.4 1021.4 0.0
19/08:00am 23.7 22.4 14.9 57 5.2 SE 15 28 8 15 1021.3 1021.3 0.0
19/07:30am 23.0 22.1 14.8 60 4.9 SSE 13 28 7 15 1021.0 1021.0 0.0
19/07:00am 21.8 20.9 14.9 65 4.1 SSE 13 20 7 11 1020.6 1020.6 0.0
19/06:30am 19.4 18.7 14.2 72 3.0 S 11 20 6 11 1020.2 1020.2 0.0
19/06:00am 18.4 17.6 13.9 75 2.6 S 11 17 6 9 1019.8 1019.8 0.0
19/05:30am 18.4 17.5 13.7 74 2.7 S 11 19 6 10 1019.6 1019.6 0.0
19/05:00am 18.4 17.6 13.9 75 2.6 S 11 20 6 11 1019.5 1019.5 0.0
19/04:30am 19.3 18.8 13.9 71 3.1 S 9 15 5 8 1019.3 1019.3 0.0
19/04:00am 20.1 19.2 13.8 67 3.6 S 11 17 6 9 1019.2 1019.2 0.0
19/03:30am 21.7 19.9 14.4 63 4.3 SE 17 33 9 18 1019.1 1019.1 0.0
19/03:00am 21.8 19.2 13.9 61 4.6 ESE 20 35 11 19 1019.1 1019.1 0.0
19/02:30am 21.8 19.1 14.7 64 4.2 ESE 22 35 12 19 1019.1 1019.1 0.0
19/02:00am 22.0 19.0 14.9 64 4.2 ESE 24 35 13 19 1019.2 1019.2 0.0
19/01:30am 22.1 18.1 14.2 61 4.6 ESE 28 46 15 25 1019.4 1019.4 0.0
19/01:07am 22.1 18.2 14.5 62 4.5 ESE 28 46 15 25 1019.6 1019.6 0.0
19/01:00am 22.1 17.7 14.0 60 4.7 E 30 44 16 24 1019.6 1019.6 0.0
19/12:30am 22.2 18.1 14.8 63 4.4 E 30 44 16 24 1020.0 1020.0 0.0
19/12:04am 22.4 18.1 15.3 64 4.2 ESE 32 50 17 27 1020.2 1020.2 0.0
19/12:00am 22.4 17.8 15.0 63 4.4 E 33 46 18 25 1020.2 1020.2 0.0
 
Date/Time
EST
Temp
°C
App
Temp
°C
Dew
Point
Rel
Hum
%
Delta-T
°C
Wind Press
QNH
hPa
Press
MSL
hPa
Rain
since 9 am
mm
Dir
 
Spd
km/h
Gust
km/h
Spd
kts
Gust
kts
18/11:30pm 22.5 18.1 15.6 65 4.1 ESE 33 50 18 27 1020.4 1020.4 0.0
18/11:11pm 22.4 18.6 14.8 62 4.5 ESE 28 48 15 26 1020.5 1020.5 0.0
18/11:00pm 22.6 18.3 15.4 64 4.3 E 32 46 17 25 1020.6 1020.6 0.0
18/10:35pm 22.6 18.2 15.2 63 4.4 E 32 50 17 27 1020.7 1020.7 0.0
18/10:30pm 22.8 18.7 15.9 65 4.2 ESE 32 44 17 24 1020.7 1020.7 0.0
18/10:00pm 22.9 18.3 15.0 61 4.7 E 33 48 18 26 1020.5 1020.5 0.0
18/09:40pm 22.9 19.7 16.2 66 4.1 ESE 28 46 15 25 1020.6 1020.6 0.0
18/09:30pm 23.2 19.2 16.7 67 4.0 E 33 48 18 26 1020.6 1020.6 0.0
18/09:11pm 23.1 20.0 16.6 67 4.0 ESE 28 46 15 25 1020.5 1020.5 0.0
18/09:00pm 23.2 19.7 16.5 66 4.1 E 30 41 16 22 1020.4 1020.4 0.0
18/08:46pm 23.2 19.9 16.0 64 4.4 ESE 28 46 15 25 1020.3 1020.3 0.0
18/08:30pm 23.5 18.8 16.8 66 4.1 E 37 52 20 28 1020.2 1020.2 0.0
18/08:00pm 23.6 18.7 15.4 60 4.9 E 35 48 19 26 1019.9 1019.9 0.0
18/07:30pm 23.8 18.5 15.3 59 5.1 E 37 48 20 26 1019.5 1019.5 0.0
18/07:00pm 23.8 20.3 17.8 69 3.7 E 33 46 18 25 1019.0 1019.0 0.0
18/06:30pm 23.5 19.2 16.8 66 4.1 E 35 46 19 25 1018.6 1018.6 0.0
18/06:00pm 23.7 19.5 17.2 67 4.0 E 35 46 19 25 1018.2 1018.2 0.0
18/05:30pm 24.1 19.9 17.1 65 4.3 E 35 48 19 26 1017.7 1017.7 0.0
18/05:00pm 24.5 19.2 16.2 60 5.1 E 39 52 21 28 1017.3 1017.3 0.0
18/04:30pm 24.7 20.3 16.7 61 4.9 E 35 54 19 29 1016.9 1016.9 0.0
18/04:28pm 24.8 20.2 16.2 58 5.3 E 35 54 19 29 1016.9 1016.9 0.0
18/04:00pm 25.3 20.1 15.6 55 5.9 E 37 50 20 27 1016.8 1016.8 0.0
18/03:30pm 25.6 21.4 16.2 56 5.8 E 33 44 18 24 1016.9 1016.9 0.0
18/03:00pm 25.6 21.0 14.7 51 6.5 E 32 41 17 22 1017.0 1017.0 0.0
18/02:30pm 26.3 22.4 14.4 48 7.1 E 28 39 15 21 1017.2 1017.2 0.0
18/02:00pm 25.9 22.0 13.4 46 7.3 E 26 37 14 20 1017.5 1017.5 0.0
18/01:30pm 26.3 23.7 15.0 49 6.8 E 22 33 12 18 1017.9 1017.9 0.0
18/01:00pm 26.0 23.5 15.1 51 6.6 E 22 32 12 17 1018.3 1018.3 0.0
18/12:30pm 27.7 25.7 15.4 47 7.5 E 20 32 11 17 1018.8 1018.8 0.0
18/12:00pm 27.8 26.2 16.1 49 7.2 ESE 19 30 10 16 1019.3 1019.3 0.0
18/11:30am 27.4 25.6 15.4 48 7.3 ESE 19 33 10 18 1019.8 1019.8 0.0
18/11:00am 26.4 24.3 15.1 49 6.8 E 20 30 11 16 1020.1 1020.1 0.0
18/10:30am 26.4 25.6 15.1 49 6.8 ESE 13 24 7 13 1020.2 1020.2 0.0
18/10:00am 26.0 24.8 15.1 51 6.6 ESE 15 22 8 12 1020.3 1020.3 0.0
18/09:30am 25.7 25.2 16.8 58 5.5 ESE 15 26 8 14 1020.4 1020.4 0.0
18/09:00am 24.4 23.8 16.6 61 4.8 SE 15 22 8 12 1020.3 1020.3 0.2
18/08:30am 24.4 24.2 16.6 61 4.8 SE 13 24 7 13 1020.1 1020.1 0.2
18/08:00am 24.1 24.4 16.9 64 4.4 SE 11 20 6 11 1019.8 1019.8 0.2
18/07:30am 22.0 22.2 15.8 68 3.7 S 9 13 5 7 1019.5 1019.5 0.2
18/07:00am 19.8 19.5 14.4 71 3.1 SSW 9 15 5 8 1019.1 1019.1 0.2
18/06:30am 18.6 18.4 13.5 72 2.9 SSW 7 13 4 7 1018.8 1018.8 0.2
18/06:00am 18.1 17.4 13.2 73 2.8 SSW 9 13 5 7 1018.4 1018.4 0.2
18/05:30am 18.9 18.5 12.4 66 3.6 S 6 11 3 6 1018.0 1018.0 0.2
18/05:00am 22.0 20.7 14.9 64 4.2 E 15 24 8 13 1017.7 1017.7 0.2
18/04:30am 22.3 21.2 15.2 64 4.2 E 15 20 8 11 1017.4 1017.4 0.2
18/04:00am 22.3 20.8 15.4 65 4.1 E 17 22 9 12 1017.3 1017.3 0.2
18/03:30am 22.4 20.4 15.0 63 4.4 E 19 26 10 14 1017.1 1017.1 0.2
18/03:00am 22.3 20.4 15.2 64 4.2 E 19 26 10 14 1017.1 1017.1 0.2
18/02:30am 22.4 20.5 15.3 64 4.2 E 19 26 10 14 1017.2 1017.2 0.2
18/02:00am 22.6 20.4 15.0 62 4.5 E 20 30 11 16 1017.2 1017.2 0.2
18/01:30am 22.6 20.1 15.2 63 4.4 E 22 28 12 15 1017.2 1017.2 0.2
18/01:00am 22.7 19.9 15.3 63 4.4 E 24 35 13 19 1017.3 1017.3 0.2
18/12:30am 22.7 20.1 15.0 61 4.6 E 22 30 12 16 1017.8 1017.8 0.2
18/12:00am 22.8 20.0 15.4 63 4.4 E 24 32 13 17 1018.1 1018.1 0.2
 
Date/Time
EST
Temp
°C
App
Temp
°C
Dew
Point
Rel
Hum
%
Delta-T
°C
Wind Press
QNH
hPa
Press
MSL
hPa
Rain
since 9 am
mm
Dir
 
Spd
km/h
Gust
km/h
Spd
kts
Gust
kts
17/11:30pm 22.9 20.2 14.7 60 4.9 E 22 33 12 18 1018.3 1018.3 0.2
17/11:00pm 23.0 20.0 14.8 60 4.9 E 24 33 13 18 1018.4 1018.4 0.2
17/10:30pm 23.1 20.2 15.2 61 4.7 E 24 35 13 19 1018.3 1018.3 0.2
17/10:00pm 23.2 20.1 14.5 58 5.1 E 24 32 13 17 1018.3 1018.3 0.2
17/09:30pm 23.2 20.0 14.2 57 5.3 E 24 33 13 18 1018.0 1018.0 0.2
17/09:00pm 23.4 20.4 14.7 58 5.1 E 24 33 13 18 1017.8 1017.8 0.2
17/08:30pm 23.6 20.4 14.3 56 5.5 E 24 32 13 17 1017.5 1017.5 0.2
17/08:00pm 23.7 20.2 14.4 56 5.5 E 26 35 14 19 1017.2 1017.2 0.2
17/07:30pm 23.9 19.8 12.8 49 6.4 E 26 35 14 19 1016.9 1016.9 0.2
17/07:00pm 24.0 20.6 14.7 56 5.5 E 26 33 14 18 1016.5 1016.5 0.2
17/06:30pm 23.9 19.7 14.6 56 5.5 E 30 37 16 20 1016.0 1016.0 0.0
17/06:00pm 23.9 20.7 15.4 59 5.1 E 26 37 14 20 1015.7 1015.7 0.0

Other Formats:

Comma delimited format used in spreadsheet applications
http://www.bom.gov.au/fwo/IDQ60801/IDQ60801.95296.axf

JavaScript Object Notation format (JSON) in row-major order
http://www.bom.gov.au/fwo/IDQ60801/IDQ60801.95296.json